Time;durP1;ratioP1;P1;durP2;ratioP2;P2;SDS_P1;SDS_P2;PMS_P1;PMS_P2;Temp;Humidity;BMP_temperature;BMP_pressure;BME280_temperature;BME280_humidity;BME280_pressure;Samples;Min_cycle;Max_cycle;Signal;HPM_P1;HPM_P2
2022/02/05 00:01:49;;;;;;;16.85;2.65;;;4.40;99.90;;;;;;6053270;23;20022;-77
2022/02/05 00:04:07;;;;;;;23.38;2.90;;;4.40;99.90;;;;;;6099956;23;20018;-76
2022/02/05 00:06:36;;;;;;;17.38;2.58;;;5.20;99.90;;;;;;6101077;23;20018;-76
2022/02/05 00:42:10;;;;;;;25.83;3.30;;;4.40;99.90;;;;;;6037290;23;20029;-77
2022/02/05 00:44:36;;;;;;;20.27;3.45;;;4.40;99.90;;;;;;6075796;23;20010;-77
2022/02/05 00:47:05;;;;;;;20.80;3.53;;;4.40;99.90;;;;;;6125929;23;20093;-77
2022/02/05 00:49:31;;;;;;;27.38;3.58;;;4.50;99.90;;;;;;6075639;23;20044;-77
2022/02/05 00:52:06;;;;;;;21.65;3.13;;;4.50;99.90;;;;;;6125172;23;20105;-76
2022/02/05 00:54:31;;;;;;;24.73;3.25;;;4.90;99.90;;;;;;6125630;23;20440;-77
2022/02/05 00:59:29;;;;;;;25.52;3.60;;;4.50;99.90;;;;;;6125903;23;20077;-77
2022/02/05 01:01:56;;;;;;;21.92;3.35;;;4.50;99.90;;;;;;6099626;23;20072;-77
2022/02/05 01:04:21;;;;;;;23.65;3.33;;;4.50;99.90;;;;;;6099845;23;20053;-77
2022/02/05 01:06:47;;;;;;;27.70;3.25;;;5.10;99.90;;;;;;6125442;23;20605;-77
2022/02/05 01:09:24;;;;;;;16.30;3.20;;;4.40;99.90;;;;;;6099289;23;20037;-77
2022/02/05 01:11:50;;;;;;;18.33;3.40;;;4.70;99.90;;;;;;6099562;23;20010;-77
2022/02/05 01:14:22;;;;;;;14.75;3.03;;;4.80;99.90;;;;;;6125691;23;20010;-77
2022/02/05 01:17:07;;;;;;;22.73;3.13;;;4.50;99.90;;;;;;6076004;23;20020;-77
2022/02/05 01:19:58;;;;;;;20.48;3.17;;;4.60;99.90;;;;;;6099259;23;20025;-77
2022/02/05 01:22:19;;;;;;;20.77;3.20;;;4.60;99.90;;;;;;6125263;23;20061;-76
2022/02/05 01:24:47;;;;;;;24.02;3.63;;;4.60;99.90;;;;;;6099019;23;20018;-74
2022/02/05 01:27:26;;;;;;;24.27;3.47;;;4.60;99.90;;;;;;6099149;23;20022;-74
2022/02/05 01:30:10;;;;;;;23.85;4.10;;;5.20;99.90;;;;;;6097611;23;20018;-76
2022/02/05 01:32:39;;;;;;;20.70;3.47;;;4.60;99.90;;;;;;6099748;23;20085;-76
2022/02/05 01:49:10;;;;;;;21.15;3.40;;;4.60;99.90;;;;;;6105247;23;20465;-76
2022/02/05 01:51:48;;;;;;;23.67;4.55;;;5.00;99.90;;;;;;6127016;23;20026;-77
2022/02/05 01:54:30;;;;;;;31.08;4.18;;;4.60;99.90;;;;;;6101606;23;20021;-77
2022/02/05 01:57:19;;;;;;;31.85;4.55;;;5.40;99.90;;;;;;6077157;23;20064;-77
2022/02/05 02:05:03;;;;;;;26.27;3.97;;;4.60;99.90;;;;;;6080485;23;20025;-76
2022/02/05 02:15:34;;;;;;;30.33;4.35;;;4.70;99.90;;;;;;6126938;23;20480;-76
2022/02/05 02:18:16;;;;;;;31.00;4.97;;;4.70;99.90;;;;;;6100972;23;20053;-75
2022/02/05 02:26:11;;;;;;;30.15;4.55;;;4.70;99.90;;;;;;6103709;23;20018;-75
2022/02/05 02:31:25;;;;;;;26.40;4.57;;;4.70;99.90;;;;;;6103429;23;20044;-75
2022/02/05 02:33:55;;;;;;;39.35;4.88;;;4.70;99.90;;;;;;6099992;23;20085;-75
2022/02/05 02:37:05;;;;;;;34.13;4.20;;;4.80;99.90;;;;;;6100599;23;20025;-76
2022/02/05 02:39:17;;;;;;;36.38;4.05;;;4.70;99.90;;;;;;6076232;23;20144;-75
2022/02/05 02:42:06;;;;;;;32.50;3.97;;;4.70;99.90;;;;;;6075753;23;20025;-75
2022/02/05 02:44:33;;;;;;;20.02;3.20;;;4.60;99.90;;;;;;6127030;23;20057;-75
2022/02/05 02:46:58;;;;;;;24.23;3.63;;;5.20;99.90;;;;;;6126692;23;20014;-75
2022/02/05 02:58:01;;;;;;;22.38;3.70;;;4.60;99.90;;;;;;6126657;23;20028;-75
2022/02/05 03:00:27;;;;;;;24.85;4.05;;;4.60;99.90;;;;;;6126545;23;20078;-75
2022/02/05 03:02:54;;;;;;;22.17;3.47;;;4.60;99.90;;;;;;6075779;23;20018;-75
2022/02/05 03:05:23;;;;;;;36.33;4.07;;;5.50;99.90;;;;;;6100723;23;20088;-75
2022/02/05 03:07:49;;;;;;;32.63;4.32;;;4.70;99.90;;;;;;6101160;23;20021;-75
2022/02/05 03:10:15;;;;;;;29.92;4.20;;;4.60;99.90;;;;;;6076614;23;20017;-75
2022/02/05 03:12:43;;;;;;;26.33;4.40;;;4.60;99.90;;;;;;6126477;23;20081;-76
2022/02/05 03:15:14;;;;;;;25.02;3.63;;;5.00;99.90;;;;;;6099914;23;20037;-75
2022/02/05 03:17:54;;;;;;;30.55;4.45;;;4.60;99.90;;;;;;6077277;23;20022;-75
2022/02/05 03:20:20;;;;;;;28.42;4.28;;;4.60;99.90;;;;;;6099765;23;20017;-75
2022/02/05 03:22:46;;;;;;;23.35;3.97;;;4.60;99.90;;;;;;6076355;23;20018;-76
2022/02/05 03:25:15;;;;;;;29.27;3.72;;;4.60;99.90;;;;;;6126324;23;20018;-75
2022/02/05 03:27:41;;;;;;;25.80;3.42;;;4.80;99.90;;;;;;6100016;23;20069;-75
2022/02/05 03:30:07;;;;;;;27.63;4.85;;;5.20;99.90;;;;;;6076231;23;20017;-74
2022/02/05 03:32:32;;;;;;;24.15;3.55;;;4.50;99.90;;;;;;6076401;23;20010;-75
2022/02/05 03:34:58;;;;;;;25.45;3.53;;;4.50;99.90;;;;;;6075086;23;20348;-75
2022/02/05 03:37:24;;;;;;;23.83;3.33;;;4.50;99.90;;;;;;6076259;23;20022;-75
2022/02/05 03:39:49;;;;;;;29.48;3.72;;;4.50;99.90;;;;;;6125975;23;20014;-75
2022/02/05 03:42:15;;;;;;;25.52;3.75;;;4.40;99.90;;;;;;6100213;23;20400;-75
2022/02/05 03:44:41;;;;;;;26.27;3.72;;;4.40;99.90;;;;;;6099644;23;20098;-75
2022/02/05 03:47:07;;;;;;;24.08;3.13;;;4.80;99.90;;;;;;6099795;23;20071;-75
2022/02/05 03:49:33;;;;;;;18.65;3.40;;;4.80;99.90;;;;;;6099074;23;20018;-75
2022/02/05 03:52:07;;;;;;;27.80;3.90;;;4.50;99.90;;;;;;6099988;23;20097;-75
2022/02/05 03:54:35;;;;;;;18.63;3.20;;;4.40;99.90;;;;;;6099947;23;20445;-75
2022/02/05 03:57:00;;;;;;;20.17;3.28;;;4.50;99.90;;;;;;6099864;23;20025;-75
2022/02/05 03:59:26;;;;;;;19.60;3.55;;;4.50;99.90;;;;;;6099846;23;20225;-75
2022/02/05 04:01:54;;;;;;;19.88;3.30;;;4.40;99.90;;;;;;6126121;23;20060;-75
2022/02/05 04:04:23;;;;;;;25.70;2.88;;;4.40;99.90;;;;;;6100905;23;20014;-75
2022/02/05 04:06:49;;;;;;;20.23;3.22;;;4.50;99.90;;;;;;6075580;23;20054;-76
2022/02/05 04:09:21;;;;;;;20.25;2.95;;;4.40;99.90;;;;;;6075338;23;20022;-76
2022/02/05 04:16:59;;;;;;;16.13;2.78;;;4.40;99.90;;;;;;6099785;23;20029;-76
2022/02/05 04:19:25;;;;;;;22.42;3.53;;;4.40;99.90;;;;;;6100308;23;20014;-76
2022/02/05 04:21:52;;;;;;;23.70;3.88;;;4.40;99.90;;;;;;6100150;23;20092;-76
2022/02/05 04:24:18;;;;;;;18.10;2.55;;;4.40;99.90;;;;;;6099847;23;20459;-75
2022/02/05 04:26:44;;;;;;;20.15;3.15;;;4.10;99.90;;;;;;6075026;23;20089;-75
2022/02/05 04:29:13;;;;;;;18.88;3.28;;;4.30;99.90;;;;;;6125533;23;20403;-75
2022/02/05 04:31:39;;;;;;;19.67;3.53;;;4.70;99.90;;;;;;6125523;23;20014;-75
2022/02/05 04:34:06;;;;;;;18.13;2.75;;;4.30;99.90;;;;;;6075653;23;20341;-74
2022/02/05 04:36:36;;;;;;;17.63;2.80;;;4.30;99.90;;;;;;6075715;23;20022;-75
2022/02/05 04:39:09;;;;;;;22.20;3.00;;;4.50;99.90;;;;;;6099529;23;20349;-75
2022/02/05 04:41:49;;;;;;;20.17;2.83;;;4.70;99.90;;;;;;6125019;23;20081;-75
2022/02/05 04:44:25;;;;;;;17.30;2.40;;;4.20;99.90;;;;;;6099724;23;20020;-75
2022/02/05 04:47:39;;;;;;;19.98;3.10;;;4.80;99.90;;;;;;6099632;23;20052;-75
2022/02/05 05:00:14;;;;;;;24.08;3.38;;;4.30;99.90;;;;;;6125748;23;20025;-75
2022/02/05 05:05:41;;;;;;;25.30;3.17;;;4.50;99.90;;;;;;6103435;23;20060;-75
2022/02/05 05:19:29;;;;;;;14.75;2.83;;;4.40;99.90;;;;;;5983848;23;20015;-75
2022/02/05 05:21:57;;;;;;;23.58;3.25;;;4.10;99.90;;;;;;5987309;23;20016;-75
2022/02/05 05:24:23;;;;;;;19.83;3.50;;;4.00;99.90;;;;;;6070546;23;20018;-75
2022/02/05 05:26:52;;;;;;;21.75;3.45;;;4.00;99.90;;;;;;6101506;23;20341;-74
2022/02/05 05:29:18;;;;;;;15.05;2.00;;;4.00;99.90;;;;;;6077700;23;20017;-75
2022/02/05 05:31:44;;;;;;;16.70;2.63;;;4.30;99.90;;;;;;6126901;23;20014;-74
2022/02/05 05:34:10;;;;;;;19.85;2.70;;;4.00;99.90;;;;;;6101393;23;20072;-73
2022/02/05 05:36:35;;;;;;;23.10;3.13;;;4.60;99.90;;;;;;6127589;23;20050;-74
2022/02/05 05:39:02;;;;;;;13.90;3.00;;;4.00;99.90;;;;;;6127510;23;20017;-74
2022/02/05 05:41:34;;;;;;;22.33;2.92;;;4.00;99.90;;;;;;6126145;23;20018;-75
2022/02/05 05:46:51;;;;;;;20.60;3.28;;;4.00;99.90;;;;;;6126469;23;20056;-75
2022/02/05 05:49:22;;;;;;;24.05;2.55;;;4.10;99.90;;;;;;6078333;23;20022;-75
2022/02/05 05:51:48;;;;;;;23.40;3.22;;;3.90;99.90;;;;;;6127188;23;20398;-75
2022/02/05 05:54:17;;;;;;;24.70;2.95;;;3.90;99.90;;;;;;6077275;23;20018;-75
2022/02/05 05:56:45;;;;;;;17.50;3.08;;;4.20;99.90;;;;;;6127162;23;20021;-75
2022/02/05 05:59:12;;;;;;;18.08;2.40;;;3.90;99.90;;;;;;6127142;23;20021;-75
2022/02/05 06:01:38;;;;;;;22.23;2.95;;;3.90;99.90;;;;;;6101122;23;20365;-74
2022/02/05 06:04:04;;;;;;;21.70;2.83;;;3.90;99.90;;;;;;6126414;23;20024;-73
2022/02/05 06:06:33;;;;;;;21.58;2.55;;;3.90;99.90;;;;;;6101104;23;20127;-74
2022/02/05 06:08:59;;;;;;;17.42;2.80;;;3.90;99.90;;;;;;6127307;23;20014;-73
2022/02/05 06:11:26;;;;;;;17.60;2.80;;;4.00;99.90;;;;;;6077102;23;20018;-75
2022/02/05 06:13:52;;;;;;;24.00;3.10;;;3.90;99.90;;;;;;6101329;23;20507;-75
2022/02/05 06:16:21;;;;;;;21.83;3.10;;;3.90;99.90;;;;;;6126797;23;20056;-75
2022/02/05 06:18:46;;;;;;;17.63;3.13;;;3.90;99.90;;;;;;6126585;23;20085;-75
2022/02/05 06:21:12;;;;;;;17.65;3.35;;;4.00;99.90;;;;;;6100212;23;20092;-74
2022/02/05 06:23:38;;;;;;;19.38;3.00;;;4.50;99.90;;;;;;6126687;23;20014;-75
2022/02/05 06:26:04;;;;;;;22.13;3.60;;;3.90;99.90;;;;;;6099802;23;20065;-75
2022/02/05 06:28:29;;;;;;;16.98;3.20;;;3.80;99.90;;;;;;6101136;23;20021;-75
2022/02/05 06:30:55;;;;;;;21.90;3.30;;;3.80;99.90;;;;;;6077069;23;20017;-74
2022/02/05 06:33:21;;;;;;;19.55;3.30;;;3.80;99.90;;;;;;6076475;23;20032;-74
2022/02/05 06:35:47;;;;;;;24.45;3.90;;;3.80;99.90;;;;;;6100769;23;20018;-74
2022/02/05 06:38:12;;;;;;;26.42;3.53;;;3.80;99.90;;;;;;6100001;23;20017;-75
2022/02/05 06:40:39;;;;;;;27.85;3.35;;;3.70;99.90;;;;;;6076758;23;20017;-74
2022/02/05 06:43:05;;;;;;;22.02;3.15;;;3.90;99.90;;;;;;6100472;23;20169;-75
2022/02/05 06:45:31;;;;;;;15.18;3.03;;;3.50;99.90;;;;;;6100380;23;20049;-75
2022/02/05 06:47:56;;;;;;;17.65;3.05;;;4.10;99.90;;;;;;6076315;23;20064;-75
2022/02/05 06:50:22;;;;;;;18.88;2.55;;;3.90;99.90;;;;;;6076374;23;20081;-75
2022/02/05 06:52:48;;;;;;;16.48;2.92;;;3.90;99.90;;;;;;6099868;23;20016;-75
2022/02/05 06:55:14;;;;;;;21.60;3.22;;;4.30;99.90;;;;;;6126501;23;20014;-75
2022/02/05 06:57:40;;;;;;;22.38;2.85;;;3.90;99.90;;;;;;6100295;23;20140;-75
2022/02/05 07:00:07;;;;;;;22.40;3.50;;;4.50;99.90;;;;;;6100529;23;20058;-75
2022/02/05 07:02:34;;;;;;;13.07;2.28;;;3.90;99.90;;;;;;6076512;23;20009;-75
2022/02/05 07:05:00;;;;;;;17.23;2.80;;;3.90;99.90;;;;;;6126799;23;20065;-75
2022/02/05 07:07:26;;;;;;;23.50;3.17;;;3.90;99.90;;;;;;6052129;23;20014;-75
2022/02/05 07:09:51;;;;;;;16.33;2.45;;;3.90;99.90;;;;;;6099335;23;20457;-76
2022/02/05 07:12:17;;;;;;;19.90;3.40;;;3.90;99.90;;;;;;6099950;23;20014;-75
2022/02/05 07:15:09;;;;;;;22.73;3.38;;;3.90;99.90;;;;;;6126158;23;20021;-75
2022/02/05 07:20:23;;;;;;;23.60;2.47;;;3.90;99.90;;;;;;6099900;23;20080;-75
2022/02/05 07:31:16;;;;;;;23.60;2.95;;;3.90;99.90;;;;;;6126306;23;20026;-76
2022/02/05 07:33:43;;;;;;;24.10;3.17;;;4.20;99.90;;;;;;6126175;23;20014;-75
2022/02/05 07:36:11;;;;;;;17.90;2.88;;;4.00;99.90;;;;;;6100129;23;20025;-75
2022/02/05 07:38:37;;;;;;;23.50;3.15;;;4.00;99.90;;;;;;6100591;23;20018;-75
2022/02/05 07:41:03;;;;;;;30.58;3.35;;;4.10;99.90;;;;;;6052375;23;20393;-75
2022/02/05 07:43:34;;;;;;;20.10;3.00;;;4.50;99.90;;;;;;6125258;23;20437;-75
2022/02/05 07:46:03;;;;;;;19.20;2.72;;;4.10;99.90;;;;;;6100697;23;20064;-75
2022/02/05 07:48:30;;;;;;;17.23;2.70;;;5.00;99.90;;;;;;6076010;23;20029;-75
2022/02/05 07:50:57;;;;;;;23.25;2.95;;;3.50;99.90;;;;;;6099898;23;20026;-75
2022/02/05 07:53:23;;;;;;;26.85;2.95;;;5.00;99.90;;;;;;6126073;23;20137;-76
2022/02/05 07:55:48;;;;;;;21.33;2.75;;;4.10;99.90;;;;;;6125810;23;20058;-76
2022/02/05 07:58:15;;;;;;;24.42;2.85;;;3.90;99.90;;;;;;6099716;23;20346;-76
2022/02/05 08:00:41;;;;;;;16.38;3.05;;;4.00;99.90;;;;;;6126181;23;20014;-76
2022/02/05 08:03:07;;;;;;;23.77;3.22;;;4.90;99.90;;;;;;6099927;23;20028;-76
2022/02/05 08:05:33;;;;;;;19.30;3.10;;;4.00;99.90;;;;;;6100336;23;20096;-76
2022/02/05 08:07:59;;;;;;;17.77;2.85;;;4.00;99.90;;;;;;6075679;23;20104;-76
2022/02/05 08:10:36;;;;;;;18.38;2.67;;;4.00;99.90;;;;;;6052082;23;20021;-76
2022/02/05 08:13:02;;;;;;;22.35;2.97;;;4.00;99.90;;;;;;6099597;23;20010;-76
2022/02/05 08:15:30;;;;;;;21.40;3.53;;;4.90;99.90;;;;;;6075460;23;20406;-76
2022/02/05 08:17:56;;;;;;;21.02;3.83;;;4.10;99.90;;;;;;6099061;23;20025;-76
2022/02/05 08:20:23;;;;;;;21.52;3.40;;;4.10;99.90;;;;;;6099950;23;20518;-76
2022/02/05 08:22:51;;;;;;;27.88;3.45;;;4.60;99.90;;;;;;6100003;23;20097;-77
2022/02/05 08:25:17;;;;;;;25.48;3.35;;;4.10;99.90;;;;;;6051952;23;20033;-76
2022/02/05 08:27:44;;;;;;;18.85;3.65;;;4.10;99.90;;;;;;6125766;23;20014;-76
2022/02/05 08:30:16;;;;;;;15.27;2.63;;;4.10;99.90;;;;;;6099566;23;20014;-75
2022/02/05 08:32:44;;;;;;;26.88;2.47;;;4.20;99.90;;;;;;6125269;23;20444;-76
2022/02/05 08:35:10;;;;;;;26.02;2.90;;;4.40;99.90;;;;;;6098447;23;20096;-72
2022/02/05 08:37:39;;;;;;;26.35;3.53;;;4.20;99.90;;;;;;6099677;23;20452;-69
2022/02/05 08:40:09;;;;;;;27.30;3.45;;;4.30;99.90;;;;;;6125876;23;20018;-72
2022/02/05 08:42:35;;;;;;;21.02;4.25;;;4.30;99.90;;;;;;6073387;23;20021;-73
2022/02/05 08:45:01;;;;;;;27.80;3.33;;;4.40;99.90;;;;;;6125136;23;20444;-73
2022/02/05 08:47:30;;;;;;;25.15;3.78;;;4.40;99.90;;;;;;6125187;23;20080;-73
2022/02/05 08:49:56;;;;;;;27.67;3.60;;;4.40;99.90;;;;;;6074998;23;20018;-73
2022/02/05 08:52:23;;;;;;;27.45;3.25;;;4.40;99.90;;;;;;6099204;23;20028;-73
2022/02/05 08:54:48;;;;;;;27.38;3.20;;;4.40;99.90;;;;;;6101016;23;20010;-73
2022/02/05 08:57:14;;;;;;;19.90;3.55;;;4.50;99.90;;;;;;6076965;23;20021;-73
2022/02/05 08:59:57;;;;;;;21.60;3.75;;;4.50;99.90;;;;;;6101148;23;20010;-73
2022/02/05 09:02:52;;;;;;;24.75;3.70;;;4.50;99.90;;;;;;6100908;23;20006;-73
2022/02/05 09:05:54;;;;;;;;;;;4.50;99.90;;;;;;6126603;23;20105;-73
2022/02/05 09:07:57;;;;;;;23.88;4.60;;;4.50;99.90;;;;;;6106474;23;20012;-73
2022/02/05 09:13:12;;;;;;;25.25;4.38;;;4.60;99.90;;;;;;6106633;23;20068;-73
2022/02/05 09:15:38;;;;;;;29.23;4.07;;;4.60;99.90;;;;;;6127545;23;20017;-71
2022/02/05 09:18:04;;;;;;;28.08;3.97;;;4.60;99.90;;;;;;6077381;23;20022;-74
2022/02/05 09:20:31;;;;;;;30.92;4.65;;;4.50;99.90;;;;;;6101334;23;20348;-77
2022/02/05 09:22:57;;;;;;;24.38;3.60;;;5.50;99.90;;;;;;6077817;23;20017;-76
2022/02/05 09:25:25;;;;;;;22.92;3.60;;;5.10;99.90;;;;;;6127537;23;20018;-78
2022/02/05 09:27:54;;;;;;;31.63;4.50;;;;;;;;;;6078024;23;20089;-78
2022/02/05 09:30:45;;;;;;;19.95;4.43;;;4.80;99.90;;;;;;6077431;23;20093;-75
2022/02/05 09:33:11;;;;;;;25.05;3.65;;;5.20;99.90;;;;;;6107318;23;20077;-72
2022/02/05 09:35:37;;;;;;;30.95;4.28;;;4.90;99.90;;;;;;6127335;23;20013;-73
2022/02/05 09:38:03;;;;;;;25.25;3.88;;;5.00;99.90;;;;;;6100569;23;20018;-74
2022/02/05 09:40:28;;;;;;;20.52;3.63;;;5.30;99.90;;;;;;6076809;23;20429;-73
2022/02/05 09:42:54;;;;;;;33.03;3.67;;;5.10;99.90;;;;;;6127658;23;20014;-72
2022/02/05 09:45:20;;;;;;;31.98;4.07;;;5.30;99.90;;;;;;6101734;23;20022;-72
2022/02/05 09:47:46;;;;;;;26.70;3.97;;;5.20;99.90;;;;;;6101055;23;20022;-72
2022/02/05 09:50:12;;;;;;;18.77;3.85;;;5.30;99.90;;;;;;6101238;23;20315;-72
2022/02/05 09:52:40;;;;;;;26.65;3.78;;;5.50;99.90;;;;;;6127346;23;20069;-72
2022/02/05 09:55:06;;;;;;;26.33;3.85;;;5.90;99.90;;;;;;6098135;23;20380;-72
2022/02/05 09:57:31;;;;;;;29.92;4.68;;;5.40;99.90;;;;;;6101195;23;20022;-73
2022/02/05 10:00:00;;;;;;;27.27;4.10;;;5.50;99.90;;;;;;6100600;23;20017;-72
2022/02/05 10:02:37;;;;;;;31.45;4.30;;;5.50;99.90;;;;;;6101066;23;20336;-72
2022/02/05 10:05:11;;;;;;;23.40;4.38;;;5.60;99.90;;;;;;6101254;23;20010;-72
2022/02/05 10:07:56;;;;;;;30.98;4.53;;;5.60;99.90;;;;;;6100311;23;20464;-73
2022/02/05 10:10:23;;;;;;;27.90;3.73;;;5.70;99.90;;;;;;6126430;23;20444;-72
2022/02/05 10:13:09;;;;;;;23.05;3.83;;;5.80;99.90;;;;;;6126730;23;20016;-73
2022/02/05 10:15:39;;;;;;;21.40;4.07;;;6.50;99.90;;;;;;6101017;23;20436;-74
2022/02/05 10:18:07;;;;;;;24.08;4.20;;;6.00;99.90;;;;;;6126295;23;20022;-74
2022/02/05 10:20:33;;;;;;;29.70;4.65;;;6.00;99.90;;;;;;6100561;23;20014;-74
2022/02/05 10:23:09;;;;;;;18.70;4.05;;;6.00;99.90;;;;;;6100529;23;20092;-74
2022/02/05 10:25:36;;;;;;;22.98;3.28;;;6.10;99.90;;;;;;6076799;23;20017;-74
2022/02/05 10:28:11;;;;;;;32.75;4.53;;;6.10;99.90;;;;;;6100733;23;20202;-74
2022/02/05 10:30:44;;;;;;;25.60;3.63;;;6.10;99.90;;;;;;6100367;23;20125;-74
2022/02/05 10:33:18;;;;;;;26.58;3.95;;;6.20;99.90;;;;;;6127007;23;20385;-74
2022/02/05 10:35:57;;;;;;;28.63;3.83;;;6.20;99.90;;;;;;6126405;23;20046;-74
2022/02/05 10:39:09;;;;;;;22.42;3.97;;;6.20;99.90;;;;;;6100985;23;20014;-74
2022/02/05 10:44:32;;;;;;;27.20;3.40;;;6.30;99.90;;;;;;6099863;23;20018;-73
2022/02/05 10:46:59;;;;;;;26.23;3.55;;;6.30;99.90;;;;;;6100320;23;20023;-74
2022/02/05 10:49:49;;;;;;;24.35;3.70;;;6.30;99.90;;;;;;6100602;23;20014;-74
2022/02/05 10:52:35;;;;;;;25.92;3.85;;;6.30;99.90;;;;;;6077843;23;20459;-78
2022/02/05 10:55:19;;;;;;;31.67;3.80;;;6.40;99.90;;;;;;6101508;23;20017;-72
2022/02/05 11:05:15;;;;;;;21.20;3.42;;;6.40;99.90;;;;;;6099654;23;20032;-76
2022/02/05 11:06:00;;;;;;;24.70;3.75;;;6.40;99.90;;;;;;6080311;23;20503;-76
2022/02/05 11:08:26;;;;;;;25.65;3.30;;;6.40;99.90;;;;;;6125938;23;20088;-76
2022/02/05 11:18:56;;;;;;;17.77;3.65;;;6.50;99.90;;;;;;6125759;23;20448;-76
2022/02/05 11:21:29;;;;;;;17.80;4.00;;;6.50;99.90;;;;;;6105148;23;20014;-76
2022/02/05 11:24:06;;;;;;;28.92;4.90;;;6.50;99.90;;;;;;6076892;23;20014;-76
2022/02/05 11:26:33;;;;;;;16.98;3.00;;;6.50;99.90;;;;;;6100341;23;20345;-74
2022/02/05 11:29:05;;;;;;;23.63;3.35;;;6.80;99.90;;;;;;6100124;23;20021;-76
2022/02/05 11:31:41;;;;;;;20.25;3.25;;;6.50;99.90;;;;;;6125837;23;20333;-76
2022/02/05 11:34:33;;;;;;;24.80;4.03;;;6.60;99.90;;;;;;6099903;23;20345;-77
2022/02/05 11:37:09;;;;;;;27.23;4.55;;;6.60;99.90;;;;;;6099822;23;20026;-75
2022/02/05 11:39:53;;;;;;;21.98;4.32;;;6.60;99.90;;;;;;6100428;23;20014;-73
2022/02/05 11:42:36;;;;;;;18.02;3.67;;;6.80;99.90;;;;;;6126186;23;20534;-78
2022/02/05 11:45:38;;;;;;;29.70;3.63;;;6.60;99.90;;;;;;6076024;23;20014;-81
2022/02/05 11:48:42;;;;;;;21.38;3.50;;;6.50;99.90;;;;;;6008028;23;20087;-80
2022/02/05 11:51:13;;;;;;;19.88;3.10;;;6.50;99.90;;;;;;6126646;23;20024;-78
2022/02/05 11:53:58;;;;;;;22.00;3.78;;;6.50;99.90;;;;;;6100170;23;20093;-75
2022/02/05 11:57:02;;;;;;;29.10;4.55;;;6.50;99.90;;;;;;6076067;23;20065;-77
2022/02/05 11:59:34;;;;;;;20.20;3.45;;;6.50;99.90;;;;;;6096505;23;20340;-77
2022/02/05 12:02:14;;;;;;;28.45;3.80;;;6.50;99.90;;;;;;6100143;23;20014;-77
2022/02/05 12:04:40;;;;;;;24.75;4.25;;;6.50;99.90;;;;;;6099824;23;20072;-78
2022/02/05 12:07:11;;;;;;;24.48;5.13;;;6.60;99.90;;;;;;6099972;23;20098;-77
2022/02/05 12:09:42;;;;;;;27.90;7.95;;;7.00;99.90;;;;;;6125957;23;20032;-75
2022/02/05 12:12:27;;;;;;;22.90;5.13;;;6.60;99.90;;;;;;6075457;23;20404;-77
2022/02/05 12:15:23;;;;;;;19.67;4.00;;;6.60;99.90;;;;;;6100100;23;20069;-77
2022/02/05 12:26:20;;;;;;;18.00;3.08;;;6.70;99.90;;;;;;6125395;23;20033;-77
2022/02/05 12:28:50;;;;;;;22.05;4.35;;;6.70;99.90;;;;;;6076214;23;20408;-75
2022/02/05 12:31:21;;;;;;;19.90;3.70;;;6.80;99.90;;;;;;6126186;23;20049;-75
2022/02/05 12:34:01;;;;;;;22.38;3.03;;;6.90;99.90;;;;;;6099918;23;20409;-76
2022/02/05 12:36:39;;;;;;;19.77;3.35;;;6.90;99.90;;;;;;6099729;23;20046;-76
2022/02/05 12:39:11;;;;;;;17.90;2.90;;;7.00;99.90;;;;;;6099980;23;20073;-76
2022/02/05 12:41:44;;;;;;;16.42;3.10;;;7.10;99.90;;;;;;6099800;23;20014;-76
2022/02/05 12:44:12;;;;;;;14.57;2.95;;;7.00;99.90;;;;;;6125720;23;20372;-76
2022/02/05 12:47:02;;;;;;;22.27;2.90;;;7.00;99.90;;;;;;6099702;23;20014;-76
2022/02/05 12:49:35;;;;;;;30.90;4.38;;;7.10;99.90;;;;;;6075644;23;20045;-76
2022/02/05 12:52:02;;;;;;;23.30;5.22;;;7.10;99.90;;;;;;6101714;23;20021;-76
2022/02/05 12:54:30;;;;;;;20.73;3.10;;;7.00;99.90;;;;;;6099676;23;20504;-76
2022/02/05 12:56:58;;;;;;;17.88;3.50;;;7.00;99.90;;;;;;6125978;23;20369;-76
2022/02/05 12:59:36;;;;;;;17.75;3.38;;;7.00;99.90;;;;;;6125471;23;20068;-75
2022/02/05 13:02:13;;;;;;;22.92;3.10;;;7.10;99.90;;;;;;6126060;23;20073;-76
2022/02/05 13:04:44;;;;;;;15.20;3.55;;;7.20;99.90;;;;;;6099900;23;20440;-77
2022/02/05 13:07:21;;;;;;;23.77;3.38;;;7.20;99.90;;;;;;6075549;23;20445;-76
2022/02/05 13:09:51;;;;;;;17.55;3.28;;;7.20;99.90;;;;;;6076290;23;20036;-76
2022/02/05 13:12:21;;;;;;;23.20;3.13;;;7.20;99.90;;;;;;6125800;23;20056;-76
2022/02/05 13:14:56;;;;;;;16.83;3.38;;;7.40;99.90;;;;;;6075532;23;20017;-76
2022/02/05 13:18:12;;;;;;;20.05;3.97;;;7.30;99.90;;;;;;6125217;23;20068;-77
2022/02/05 13:33:38;;;;;;;19.42;3.30;;;7.30;99.90;;;;;;6124801;23;20014;-77
2022/02/05 13:44:39;;;;;;;19.27;3.38;;;7.50;99.90;;;;;;6102695;23;20014;-77
2022/02/05 13:47:16;;;;;;;18.95;2.90;;;7.40;99.90;;;;;;6101452;23;20025;-77
2022/02/05 13:49:42;;;;;;;17.48;2.92;;;7.50;99.90;;;;;;6077154;23;20022;-77
2022/02/05 13:52:14;;;;;;;27.13;3.60;;;7.40;99.90;;;;;;6127615;23;20081;-77
2022/02/05 13:54:42;;;;;;;22.67;3.33;;;7.40;99.90;;;;;;6101823;23;20318;-77
2022/02/05 13:57:14;;;;;;;18.55;3.47;;;7.30;99.90;;;;;;6101481;23;20353;-77
2022/02/05 13:59:40;;;;;;;20.42;3.30;;;7.30;99.90;;;;;;6101478;23;20064;-77
2022/02/05 14:02:37;;;;;;;19.25;3.75;;;7.40;99.90;;;;;;6127291;23;20009;-77
2022/02/05 14:05:15;;;;;;;22.70;3.53;;;7.60;99.90;;;;;;6100211;23;20018;-77
2022/02/05 14:07:45;;;;;;;18.58;3.33;;;7.30;99.90;;;;;;6100864;23;20018;-77
2022/02/05 14:10:16;;;;;;;19.17;3.53;;;8.00;99.90;;;;;;6101095;23;20472;-77
2022/02/05 14:12:48;;;;;;;19.83;3.38;;;7.30;99.90;;;;;;6100690;23;20021;-77
2022/02/05 14:15:15;;;;;;;27.73;3.53;;;7.20;99.90;;;;;;6101365;23;20429;-77
2022/02/05 14:17:40;;;;;;;16.02;2.85;;;7.40;99.90;;;;;;6100727;23;20017;-78
2022/02/05 14:20:11;;;;;;;22.25;3.35;;;7.30;99.90;;;;;;6077031;23;20034;-77
2022/02/05 14:22:39;;;;;;;21.10;3.10;;;7.30;99.90;;;;;;6076465;23;20018;-77
2022/02/05 14:25:17;;;;;;;18.20;2.55;;;7.30;99.90;;;;;;6077084;23;20056;-77
2022/02/05 14:28:29;;;;;;;19.40;2.60;;;7.30;99.90;;;;;;6127085;23;20014;-76
2022/02/05 14:31:11;;;;;;;18.20;3.88;;;7.30;99.90;;;;;;5984951;23;20011;-77
2022/02/05 14:36:34;;;;;;;13.25;2.30;;;7.30;99.90;;;;;;6100488;23;20073;-77
2022/02/05 14:41:44;;;;;;;15.35;2.38;;;7.30;99.90;;;;;;6079894;23;20020;-77
2022/02/05 14:44:11;;;;;;;15.32;2.58;;;7.30;99.90;;;;;;6126747;23;20041;-77
2022/02/05 14:46:37;;;;;;;27.98;3.67;;;7.30;99.90;;;;;;6124537;23;20021;-77
2022/02/05 14:49:02;;;;;;;12.80;2.05;;;7.30;99.90;;;;;;6100008;23;20353;-77
2022/02/05 14:51:28;;;;;;;19.77;3.08;;;7.20;99.90;;;;;;6052713;23;20021;-77
2022/02/05 14:53:58;;;;;;;15.05;2.85;;;7.20;99.90;;;;;;6126421;23;20021;-77
2022/02/05 14:56:24;;;;;;;15.02;2.60;;;7.30;99.90;;;;;;6076877;23;20041;-77
2022/02/05 14:58:50;;;;;;;17.60;3.60;;;7.20;99.90;;;;;;6126517;23;20452;-77
2022/02/05 15:01:21;;;;;;;19.25;3.15;;;7.50;99.90;;;;;;6126530;23;20021;-77
2022/02/05 15:03:50;;;;;;;19.10;2.75;;;7.20;99.90;;;;;;6126447;23;20025;-77
2022/02/05 15:06:21;;;;;;;19.60;3.05;;;7.30;99.90;;;;;;6076175;23;20381;-77
2022/02/05 15:08:48;;;;;;;22.75;3.30;;;7.10;99.90;;;;;;6100607;23;20349;-77
2022/02/05 15:11:15;;;;;;;17.00;2.90;;;7.10;99.90;;;;;;6126519;23;20014;-77
2022/02/05 15:13:42;;;;;;;18.08;2.83;;;7.50;99.90;;;;;;6051950;23;20064;-77
2022/02/05 15:16:14;;;;;;;23.42;3.22;;;7.10;99.90;;;;;;6100420;23;20029;-77
2022/02/05 15:18:41;;;;;;;24.45;3.08;;;7.10;99.90;;;;;;6100403;23;20329;-77
2022/02/05 15:21:10;;;;;;;16.73;2.67;;;7.10;99.90;;;;;;6126232;23;20088;-77
2022/02/05 15:23:36;;;;;;;22.98;3.10;;;7.60;99.90;;;;;;6076461;23;20018;-77
2022/02/05 15:26:03;;;;;;;17.42;3.15;;;7.10;99.90;;;;;;6126247;23;20437;-77
2022/02/05 15:28:30;;;;;;;23.83;3.00;;;7.10;99.90;;;;;;6125960;23;20018;-77
2022/02/05 15:30:56;;;;;;;17.80;3.10;;;7.10;99.90;;;;;;6100228;23;20025;-77
2022/02/05 15:33:23;;;;;;;18.00;2.80;;;7.00;99.90;;;;;;6099478;23;20045;-76
2022/02/05 15:35:51;;;;;;;20.35;3.53;;;7.00;99.90;;;;;;6126440;23;20021;-77
2022/02/05 15:38:25;;;;;;;17.05;3.22;;;7.00;99.90;;;;;;6100264;23;20076;-77
2022/02/05 15:46:17;;;;;;;18.52;2.67;;;7.00;99.90;;;;;;6077616;23;20022;-77
2022/02/05 15:48:43;;;;;;;21.58;3.08;;;7.00;99.90;;;;;;6125909;23;20025;-77
2022/02/05 15:51:09;;;;;;;16.63;2.45;;;7.00;99.90;;;;;;6076425;23;20022;-77
2022/02/05 15:53:41;;;;;;;16.20;2.63;;;7.00;99.90;;;;;;6052395;23;20073;-77
2022/02/05 15:56:11;;;;;;;17.80;3.08;;;7.00;99.90;;;;;;6126311;23;20056;-78
2022/02/05 15:58:46;;;;;;;20.08;2.72;;;6.90;99.90;;;;;;6077514;23;20018;-78
2022/02/05 16:01:12;;;;;;;27.40;3.58;;;7.00;99.90;;;;;;6125399;23;20471;-78
2022/02/05 16:03:38;;;;;;;18.73;3.60;;;6.90;99.90;;;;;;6076503;23;20029;-78
2022/02/05 16:06:06;;;;;;;16.75;3.08;;;6.90;99.90;;;;;;6100684;23;20093;-78
2022/02/05 16:08:32;;;;;;;17.67;3.13;;;6.90;99.90;;;;;;6099940;23;20440;-78
2022/02/05 16:11:01;;;;;;;18.48;3.00;;;6.90;99.90;;;;;;6100251;23;20069;-78